Time;durP1;ratioP1;P1;durP2;ratioP2;P2;SDS_P1;SDS_P2;PMS_P1;PMS_P2;Temp;Humidity;BMP_temperature;BMP_pressure;BME280_temperature;BME280_humidity;BME280_pressure;Samples;Min_cycle;Max_cycle;Signal;HPM_P1;HPM_P2
2021/01/10 00:01:56;;;;;;;59.23;29.83;;;5.00;99.90;;;;;;5015673;28;20242;-67
2021/01/10 00:07:43;;;;;;;63.00;31.70;;;5.00;99.90;;;;;;5012268;28;20240;-65
2021/01/10 00:13:32;;;;;;;59.37;28.20;;;5.00;99.90;;;;;;5014258;28;20578;-66
2021/01/10 00:15:57;;;;;;;58.47;28.47;;;5.10;99.90;;;;;;5015419;28;20790;-66
2021/01/10 00:18:23;;;;;;;53.50;29.60;;;5.10;99.90;;;;;;5015404;28;20424;-66
2021/01/10 00:20:48;;;;;;;54.17;29.20;;;5.10;99.90;;;;;;5015418;28;20175;-66
2021/01/10 00:23:14;;;;;;;60.30;29.80;;;5.10;99.90;;;;;;5015178;28;20208;-67
2021/01/10 00:25:39;;;;;;;62.77;29.03;;;5.10;99.90;;;;;;5015317;28;20186;-63
2021/01/10 00:28:06;;;;;;;50.77;27.63;;;5.10;99.90;;;;;;5015215;28;20657;-63
2021/01/10 00:30:31;;;;;;;55.13;28.50;;;5.10;99.90;;;;;;5014850;28;20176;-63
2021/01/10 00:32:57;;;;;;;54.40;28.50;;;5.10;99.90;;;;;;5015112;28;20439;-64
2021/01/10 00:35:24;;;;;;;47.97;28.30;;;5.10;99.90;;;;;;5015140;28;20180;-64
2021/01/10 00:37:52;;;;;;;53.33;28.63;;;5.10;99.90;;;;;;5015065;28;20176;-64
2021/01/10 00:40:19;;;;;;;55.17;30.35;;;5.10;99.90;;;;;;5014527;28;20427;-64
2021/01/10 00:42:45;;;;;;;40.60;25.40;;;5.10;99.90;;;;;;5014876;28;20270;-64
2021/01/10 00:45:12;;;;;;;53.57;27.20;;;5.10;99.90;;;;;;5014973;28;20441;-64
2021/01/10 00:47:38;;;;;;;40.50;23.60;;;5.10;99.90;;;;;;5014879;28;20514;-64
2021/01/10 00:53:25;;;;;;;40.33;21.83;;;5.10;99.90;;;;;;5014596;28;20460;-64
2021/01/10 00:55:51;;;;;;;39.77;23.57;;;5.10;99.90;;;;;;5014766;28;20426;-64
2021/01/10 00:58:16;;;;;;;40.70;22.10;;;5.10;99.90;;;;;;5014749;28;20590;-64
2021/01/10 01:00:42;;;;;;;42.23;23.33;;;5.10;99.90;;;;;;5014708;28;20175;-64
2021/01/10 01:03:07;;;;;;;44.03;22.80;;;5.10;99.90;;;;;;5014548;28;20245;-64
2021/01/10 01:08:54;;;;;;;37.93;23.00;;;5.10;99.90;;;;;;5002804;28;20301;-64
2021/01/10 01:11:31;;;;;;;43.17;23.60;;;5.10;99.90;;;;;;5014516;28;20803;-64
2021/01/10 01:13:57;;;;;;;52.90;24.00;;;5.10;99.90;;;;;;5014956;28;20222;-64
2021/01/10 01:16:23;;;;;;;46.13;24.13;;;5.10;99.90;;;;;;5014348;28;20431;-64
2021/01/10 01:18:49;;;;;;;45.17;26.07;;;5.10;99.90;;;;;;5014059;28;20937;-64
2021/01/10 01:24:36;;;;;;;46.53;25.83;;;5.10;99.90;;;;;;5013739;28;20744;-62
2021/01/10 01:27:02;;;;;;;46.37;24.50;;;5.10;99.90;;;;;;5014291;28;20427;-63
2021/01/10 01:29:27;;;;;;;49.43;27.37;;;5.10;99.90;;;;;;5013872;28;20183;-63
2021/01/10 01:31:53;;;;;;;45.10;25.73;;;5.00;99.90;;;;;;5013933;28;20183;-63
2021/01/10 01:37:41;;;;;;;46.30;24.73;;;5.00;99.90;;;;;;5013860;28;20184;-63
2021/01/10 01:40:08;;;;;;;46.07;24.70;;;5.00;99.90;;;;;;5014676;28;20449;-63
2021/01/10 01:42:33;;;;;;;44.23;24.90;;;5.00;99.90;;;;;;5013991;28;20442;-63
2021/01/10 01:45:00;;;;;;;46.30;23.73;;;5.00;99.90;;;;;;5013851;28;20963;-63
2021/01/10 01:47:27;;;;;;;44.03;25.00;;;5.00;99.90;;;;;;5014113;28;20180;-63
2021/01/10 01:49:52;;;;;;;46.07;23.33;;;5.00;99.90;;;;;;5014047;28;20434;-63
2021/01/10 01:52:18;;;;;;;36.03;21.90;;;5.00;99.90;;;;;;5014560;28;20432;-63
2021/01/10 01:54:44;;;;;;;38.40;21.80;;;5.00;99.90;;;;;;5013687;28;20271;-63
2021/01/10 01:57:10;;;;;;;40.53;23.10;;;5.00;99.90;;;;;;5014562;28;20179;-63
2021/01/10 01:59:35;;;;;;;39.00;22.50;;;5.00;99.90;;;;;;5013680;28;20294;-63
2021/01/10 02:02:04;;;;;;;39.97;21.70;;;5.00;99.90;;;;;;5013903;28;20430;-63
2021/01/10 02:04:39;;;;;;;35.37;21.27;;;5.00;99.90;;;;;;5013844;28;20203;-63
2021/01/10 02:07:43;;;;;;;44.77;21.77;;;5.00;99.90;;;;;;5012490;28;20427;-63
2021/01/10 02:10:14;;;;;;;41.07;21.97;;;5.00;99.90;;;;;;4972490;28;20457;-63
2021/01/10 02:12:52;;;;;;;39.27;20.93;;;5.00;99.90;;;;;;5007486;28;20422;-63
2021/01/10 02:15:24;;;;;;;46.07;22.63;;;5.00;99.90;;;;;;5013771;28;20426;-63
2021/01/10 02:17:53;;;;;;;46.80;23.20;;;5.00;99.90;;;;;;5013794;28;20430;-63
2021/01/10 02:20:28;;;;;;;39.60;24.97;;;5.00;99.90;;;;;;5013710;28;20439;-63
2021/01/10 02:23:14;;;;;;;43.87;23.80;;;5.00;99.90;;;;;;5013661;28;20563;-63
2021/01/10 06:32:09;;;;;;;49.03;23.80;;;4.60;99.90;;;;;;5308939;23;20493;-61
2021/01/10 06:34:39;;;;;;;40.37;21.67;;;4.60;99.90;;;;;;5036896;28;20452;-62
2021/01/10 06:37:07;;;;;;;48.40;22.47;;;4.60;99.90;;;;;;5036781;28;20900;-61
2021/01/10 06:39:39;;;;;;;48.70;24.20;;;4.60;99.90;;;;;;5036601;28;20424;-62
2021/01/10 06:42:05;;;;;;;49.27;23.70;;;4.70;99.90;;;;;;5036727;28;20428;-61
2021/01/10 06:44:36;;;;;;;50.20;25.37;;;4.70;99.90;;;;;;5036447;28;20555;-61
2021/01/10 06:47:03;;;;;;;50.37;22.77;;;4.70;99.90;;;;;;5036621;28;20433;-62
2021/01/10 06:49:28;;;;;;;46.63;23.60;;;4.70;99.90;;;;;;5036387;28;20449;-61
2021/01/10 06:51:57;;;;;;;51.03;25.43;;;4.70;99.90;;;;;;5036541;28;20425;-62
2021/01/10 06:54:24;;;;;;;53.63;23.30;;;4.80;99.90;;;;;;5036415;28;20182;-61
2021/01/10 06:56:54;;;;;;;52.28;27.00;;;4.70;99.90;;;;;;5035415;28;20419;-61
2021/01/10 06:59:21;;;;;;;46.80;23.63;;;4.70;99.90;;;;;;5036319;28;20174;-62
2021/01/10 07:01:51;;;;;;;49.10;22.50;;;4.80;99.90;;;;;;5036164;28;20417;-61
2021/01/10 07:04:32;;;;;;;48.83;24.23;;;4.80;99.90;;;;;;5036165;28;20858;-61
2021/01/10 07:06:57;;;;;;;48.23;22.53;;;4.80;99.90;;;;;;5036224;28;20424;-61
2021/01/10 07:09:23;;;;;;;45.83;22.20;;;4.80;99.90;;;;;;5036002;28;20439;-61
2021/01/10 07:11:50;;;;;;;44.70;21.00;;;4.80;99.90;;;;;;5035953;28;20178;-61
2021/01/10 07:14:22;;;;;;;44.17;22.47;;;4.80;99.90;;;;;;5035853;28;20176;-61
2021/01/10 07:16:47;;;;;;;45.13;23.23;;;4.80;99.90;;;;;;5035861;28;20418;-61
2021/01/10 07:19:14;;;;;;;53.23;20.40;;;4.80;99.90;;;;;;5054743;22;20492;-78
2021/01/10 07:21:42;;;;;;;50.07;22.30;;;4.80;99.90;;;;;;5035278;28;20191;-76
2021/01/10 07:26:41;;;;;;;42.20;21.80;;;4.80;99.90;;;;;;5035760;28;20787;-79
2021/01/10 07:29:45;;;;;;;41.33;22.23;;;4.80;99.90;;;;;;5035808;28;20410;-77
2021/01/10 07:32:19;;;;;;;37.50;21.50;;;4.80;99.90;;;;;;5017190;28;20994;-77
2021/01/10 07:34:45;;;;;;;40.87;21.23;;;4.70;99.90;;;;;;5033417;28;20437;-79
2021/01/10 07:37:16;;;;;;;38.03;20.70;;;4.70;99.90;;;;;;5034387;28;20761;-79
2021/01/10 07:39:56;;;;;;;47.33;21.00;;;4.80;99.90;;;;;;5035464;28;20191;-78
2021/01/10 07:42:24;;;;;;;39.20;21.73;;;4.80;99.90;;;;;;5035509;28;20423;-79
2021/01/10 07:44:54;;;;;;;41.93;22.10;;;4.80;99.90;;;;;;5035447;28;20828;-78
2021/01/10 07:47:29;;;;;;;35.30;20.63;;;4.70;99.90;;;;;;5035531;28;20418;-78
2021/01/10 07:49:56;;;;;;;46.57;22.53;;;4.70;99.90;;;;;;5035405;28;20467;-79
2021/01/10 07:52:42;;;;;;;49.13;22.40;;;4.70;99.90;;;;;;5035322;28;20435;-79
2021/01/10 07:55:19;;;;;;;46.03;25.10;;;4.70;99.90;;;;;;5028624;28;20427;-68
2021/01/10 07:57:46;;;;;;;44.47;22.50;;;4.70;99.90;;;;;;5014436;28;20175;-69
2021/01/10 08:00:23;;;;;;;41.43;22.00;;;4.90;99.90;;;;;;5014461;28;20424;-69
2021/01/10 08:02:59;;;;;;;42.23;21.77;;;4.90;99.90;;;;;;5014439;28;20458;-69
2021/01/10 08:05:28;;;;;;;36.63;20.10;;;4.90;99.90;;;;;;5014436;28;20430;-74
2021/01/10 08:08:03;;;;;;;47.57;21.87;;;4.90;99.90;;;;;;5014477;28;20468;-74
2021/01/10 08:10:49;;;;;;;39.33;19.63;;;4.90;99.90;;;;;;5014212;28;20830;-73
2021/01/10 08:13:29;;;;;;;40.60;20.53;;;5.00;99.90;;;;;;5019508;28;20436;-75
2021/01/10 08:16:12;;;;;;;32.90;18.70;;;5.00;99.90;;;;;;5030552;28;20962;-72
2021/01/10 08:18:45;;;;;;;37.37;19.40;;;5.00;99.90;;;;;;5021778;28;20556;-75
2021/01/10 08:21:15;;;;;;;39.23;21.80;;;5.00;99.90;;;;;;5022014;28;20436;-76
2021/01/10 08:23:43;;;;;;;35.87;19.80;;;4.90;99.90;;;;;;5030821;28;20477;-76
2021/01/10 08:26:18;;;;;;;36.43;19.33;;;4.90;99.90;;;;;;5033234;28;20448;-77
2021/01/10 08:28:49;;;;;;;39.30;21.30;;;4.90;99.90;;;;;;5033596;28;20424;-75
2021/01/10 08:31:17;;;;;;;32.20;19.37;;;4.90;99.90;;;;;;5033543;28;20977;-83
2021/01/10 08:33:43;;;;;;;42.30;19.10;;;4.90;99.90;;;;;;5032557;28;20437;-75
2021/01/10 08:36:21;;;;;;;37.30;18.87;;;4.90;99.90;;;;;;5033203;28;20488;-77
2021/01/10 08:38:56;;;;;;;40.57;20.40;;;5.00;99.90;;;;;;5033314;28;20429;-75
2021/01/10 08:41:32;;;;;;;46.33;22.40;;;4.90;99.90;;;;;;5033226;28;20422;-85
2021/01/10 08:44:03;;;;;;;35.40;23.33;;;4.90;99.90;;;;;;5033648;28;20304;-78
2021/01/10 08:46:31;;;;;;;37.93;19.53;;;4.90;99.90;;;;;;5033126;28;20432;-69
2021/01/10 08:48:58;;;;;;;39.40;19.20;;;5.00;99.90;;;;;;5033193;28;20816;-68
2021/01/10 08:51:35;;;;;;;41.10;20.50;;;5.00;99.90;;;;;;5032826;28;20447;-69
2021/01/10 08:54:02;;;;;;;37.83;20.07;;;5.10;99.90;;;;;;5033093;28;20924;-69
2021/01/10 08:56:30;;;;;;;46.70;21.17;;;5.10;99.90;;;;;;5033057;28;20462;-69
2021/01/10 08:58:56;;;;;;;37.77;20.60;;;5.00;99.90;;;;;;5032710;28;20917;-69
2021/01/10 09:01:23;;;;;;;38.17;19.47;;;5.00;99.90;;;;;;5032922;28;20509;-70
2021/01/10 09:03:56;;;;;;;38.93;20.67;;;5.10;99.90;;;;;;5032806;28;20561;-69
2021/01/10 09:06:25;;;;;;;33.80;17.53;;;5.10;99.90;;;;;;5032439;28;20986;-69
2021/01/10 09:08:58;;;;;;;37.07;19.20;;;5.00;99.90;;;;;;5030189;28;20924;-70
2021/01/10 09:11:28;;;;;;;35.87;19.20;;;5.10;99.90;;;;;;5029691;28;20786;-69
2021/01/10 09:13:57;;;;;;;42.30;21.13;;;5.00;99.90;;;;;;5032877;28;20434;-70
2021/01/10 09:16:25;;;;;;;36.20;19.60;;;5.00;99.90;;;;;;5032528;28;20439;-70
2021/01/10 09:18:54;;;;;;;35.97;18.50;;;5.00;99.90;;;;;;5032410;28;20616;-69
2021/01/10 09:21:26;;;;;;;45.07;20.60;;;5.10;99.90;;;;;;5026190;28;20484;-70
2021/01/10 09:23:54;;;;;;;36.03;19.43;;;5.00;99.90;;;;;;5033102;28;20485;-70
2021/01/10 09:26:38;;;;;;;34.77;18.33;;;5.10;99.90;;;;;;5029716;28;20537;-69
2021/01/10 09:29:16;;;;;;;31.00;16.70;;;5.20;99.90;;;;;;5027122;28;20804;-69
2021/01/10 09:31:48;;;;;;;37.57;17.90;;;5.10;99.90;;;;;;5033278;28;20769;-70
2021/01/10 09:34:14;;;;;;;31.10;17.90;;;5.00;99.90;;;;;;5033281;28;20520;-70
2021/01/10 09:36:40;;;;;;;28.87;17.37;;;5.10;99.90;;;;;;5033074;28;20514;-77
2021/01/10 09:39:07;;;;;;;31.13;18.17;;;5.10;99.90;;;;;;5031979;28;20462;-73
2021/01/10 09:41:56;;;;;;;26.97;16.60;;;5.10;99.90;;;;;;5033264;28;20580;-79
2021/01/10 09:44:21;;;;;;;37.63;18.20;;;5.10;99.90;;;;;;5032796;28;20592;-74
2021/01/10 09:46:53;;;;;;;30.53;18.30;;;5.10;99.90;;;;;;5032900;28;20523;-73
2021/01/10 09:49:25;;;;;;;30.13;16.97;;;5.10;99.90;;;;;;5033178;28;20194;-73
2021/01/10 09:51:51;;;;;;;40.07;20.20;;;5.20;99.90;;;;;;5027263;28;20445;-79
2021/01/10 09:54:19;;;;;;;34.20;18.73;;;5.20;99.90;;;;;;5025434;28;20443;-75
2021/01/10 09:56:46;;;;;;;39.23;20.70;;;5.20;99.90;;;;;;5029951;28;20441;-77
2021/01/10 09:59:30;;;;;;;34.40;18.23;;;5.10;99.90;;;;;;5027806;28;20820;-81
2021/01/10 10:01:58;;;;;;;34.70;20.40;;;5.20;99.90;;;;;;5024091;28;20427;-74
2021/01/10 10:04:27;;;;;;;35.40;20.40;;;5.20;99.90;;;;;;5025571;28;20476;-79
2021/01/10 10:06:53;;;;;;;41.30;18.53;;;5.30;99.90;;;;;;5024938;28;20511;-73
2021/01/10 10:09:18;;;;;;;36.83;20.60;;;5.30;99.90;;;;;;5026659;28;20495;-73
2021/01/10 10:11:44;;;;;;;27.27;17.37;;;5.40;99.90;;;;;;5024927;28;20668;-73
2021/01/10 10:14:10;;;;;;;22.50;14.33;;;5.50;99.90;;;;;;5030076;28;20233;-75
2021/01/10 10:16:36;;;;;;;28.67;17.60;;;5.50;99.90;;;;;;5031980;28;20181;-80
2021/01/10 10:19:01;;;;;;;34.53;17.50;;;5.50;99.90;;;;;;5025449;28;20473;-74
2021/01/10 10:21:27;;;;;;;28.17;15.03;;;5.50;99.90;;;;;;5026421;28;20238;-77
2021/01/10 10:23:52;;;;;;;32.40;16.97;;;5.60;99.90;;;;;;5027251;28;20247;-76
2021/01/10 10:26:18;;;;;;;31.70;15.17;;;5.60;99.90;;;;;;5032984;28;20241;-77
2021/01/10 10:28:43;;;;;;;25.00;15.30;;;5.60;99.90;;;;;;5032548;28;20635;-74
2021/01/10 10:31:11;;;;;;;33.73;16.27;;;5.60;99.90;;;;;;5032759;28;20218;-73
2021/01/10 10:33:37;;;;;;;29.53;14.97;;;5.50;99.90;;;;;;5032122;28;20190;-72
2021/01/10 10:36:03;;;;;;;27.87;13.23;;;5.60;99.90;;;;;;5031866;28;20435;-73
2021/01/10 10:38:31;;;;;;;37.63;15.33;;;5.70;99.90;;;;;;5029790;28;20957;-69
2021/01/10 10:40:56;;;;;;;25.93;13.40;;;5.60;99.90;;;;;;5032696;28;20564;-68
2021/01/10 10:43:22;;;;;;;33.30;14.47;;;5.70;99.90;;;;;;5032538;28;20464;-76
2021/01/10 10:45:47;;;;;;;28.97;13.80;;;5.80;99.90;;;;;;5025760;28;20188;-74
2021/01/10 10:48:13;;;;;;;25.43;13.80;;;5.80;99.90;;;;;;5023576;28;20183;-74
2021/01/10 10:50:38;;;;;;;28.30;14.70;;;5.80;99.90;;;;;;5028459;28;20539;-69
2021/01/10 10:53:08;;;;;;;28.10;13.63;;;5.50;99.90;;;;;;5032335;28;20269;-69
2021/01/10 10:55:34;;;;;;;28.03;12.53;;;5.50;99.90;;;;;;5032309;28;20187;-70
2021/01/10 10:57:59;;;;;;;27.00;14.00;;;5.50;99.90;;;;;;5033641;28;20448;-69
2021/01/10 11:00:25;;;;;;;30.20;13.37;;;5.50;99.90;;;;;;5036027;28;20668;-69
2021/01/10 11:02:51;;;;;;;31.20;13.20;;;5.60;99.90;;;;;;5035966;28;20179;-69
2021/01/10 11:05:17;;;;;;;17.73;12.53;;;5.60;99.90;;;;;;5036005;28;20238;-69
2021/01/10 11:07:42;;;;;;;20.13;11.20;;;5.60;99.90;;;;;;5035359;28;20195;-68
2021/01/10 11:10:09;;;;;;;21.87;11.80;;;5.70;99.90;;;;;;5034194;28;20457;-69
2021/01/10 11:12:34;;;;;;;23.10;12.37;;;5.70;99.90;;;;;;5027338;28;20180;-69
2021/01/10 11:15:00;;;;;;;22.13;11.20;;;5.80;99.90;;;;;;5028956;28;20449;-71
2021/01/10 11:17:26;;;;;;;24.80;11.00;;;5.90;99.90;;;;;;5030507;28;20251;-71
2021/01/10 11:19:51;;;;;;;20.47;10.80;;;6.00;99.90;;;;;;5028244;28;20193;-70
2021/01/10 11:22:17;;;;;;;28.57;11.97;;;5.90;99.90;;;;;;5035429;28;20192;-70
2021/01/10 11:24:43;;;;;;;25.03;11.60;;;5.90;99.90;;;;;;5035329;28;20269;-69
2021/01/10 11:27:10;;;;;;;20.83;11.60;;;5.90;99.90;;;;;;5035671;28;20207;-68
2021/01/10 11:29:36;;;;;;;24.13;13.00;;;6.00;99.90;;;;;;5035549;28;20500;-69
2021/01/10 11:32:02;;;;;;;27.60;12.20;;;6.10;99.90;;;;;;5035555;28;20441;-70
2021/01/10 11:34:28;;;;;;;23.53;11.80;;;6.20;99.90;;;;;;5035305;28;20449;-70
2021/01/10 11:36:55;;;;;;;21.60;11.80;;;6.10;99.90;;;;;;5028313;28;20816;-70
2021/01/10 11:39:22;;;;;;;25.20;14.23;;;6.00;99.90;;;;;;5027358;28;20191;-69
2021/01/10 11:41:50;;;;;;;27.60;14.53;;;6.00;99.90;;;;;;5033996;28;20430;-70
2021/01/10 11:44:18;;;;;;;29.50;14.50;;;6.10;99.90;;;;;;5034919;28;20488;-70
2021/01/10 11:46:46;;;;;;;27.60;14.03;;;6.10;99.90;;;;;;5028850;28;20435;-67
2021/01/10 11:49:12;;;;;;;35.77;13.07;;;6.10;99.90;;;;;;5027083;28;20815;-69
2021/01/10 11:51:38;;;;;;;28.30;14.30;;;6.10;99.90;;;;;;5025604;28;20517;-70
2021/01/10 11:54:04;;;;;;;26.30;13.33;;;6.20;99.90;;;;;;5030435;28;20444;-70
2021/01/10 11:56:30;;;;;;;31.03;13.60;;;6.20;99.90;;;;;;5034320;28;20424;-70
2021/01/10 11:58:55;;;;;;;24.83;13.03;;;6.40;99.90;;;;;;5025676;28;20462;-69
2021/01/10 12:01:21;;;;;;;33.13;13.60;;;6.40;99.90;;;;;;5031264;28;20191;-69
2021/01/10 12:03:49;;;;;;;21.90;12.57;;;6.40;99.90;;;;;;5034594;28;20253;-69
2021/01/10 12:06:19;;;;;;;21.13;11.80;;;6.50;99.90;;;;;;5034326;28;20191;-69
2021/01/10 12:08:45;;;;;;;26.30;12.73;;;6.60;99.90;;;;;;5034320;28;20936;-70
2021/01/10 12:11:15;;;;;;;17.40;11.67;;;6.60;99.90;;;;;;5031057;28;20442;-69
2021/01/10 12:13:42;;;;;;;22.73;13.17;;;6.60;99.90;;;;;;5032680;28;20426;-69
2021/01/10 12:16:13;;;;;;;23.03;11.57;;;6.60;99.90;;;;;;5031787;28;20496;-70
2021/01/10 12:18:40;;;;;;;29.00;11.40;;;6.70;99.90;;;;;;5032965;28;20876;-68
2021/01/10 12:21:07;;;;;;;21.67;10.97;;;6.70;99.90;;;;;;5028482;28;20434;-68
2021/01/10 12:23:33;;;;;;;21.27;11.03;;;6.80;99.90;;;;;;5025886;28;20479;-68
2021/01/10 12:25:58;;;;;;;18.13;10.83;;;6.80;99.90;;;;;;5029217;28;20430;-68
2021/01/10 12:28:24;;;;;;;16.10;8.87;;;6.70;99.90;;;;;;5030786;28;20793;-68
2021/01/10 12:30:49;;;;;;;22.00;9.73;;;6.80;99.90;;;;;;5028040;28;20184;-68
2021/01/10 12:33:15;;;;;;;21.47;9.67;;;6.80;99.90;;;;;;5024629;28;20355;-68
2021/01/10 12:35:40;;;;;;;19.10;9.37;;;6.80;99.90;;;;;;5032707;28;20194;-69
2021/01/10 12:38:06;;;;;;;16.67;8.10;;;6.80;99.90;;;;;;5031485;28;20266;-69
2021/01/10 12:40:31;;;;;;;17.97;9.80;;;6.70;99.90;;;;;;5031438;28;20194;-69
2021/01/10 12:42:57;;;;;;;14.80;9.40;;;6.80;99.90;;;;;;5032872;28;20201;-69
2021/01/10 12:45:22;;;;;;;15.77;7.90;;;6.80;99.90;;;;;;5034112;28;20230;-69
2021/01/10 12:47:48;;;;;;;13.87;8.00;;;6.50;99.90;;;;;;5034000;28;20275;-69
2021/01/10 12:50:14;;;;;;;20.67;10.53;;;6.70;99.90;;;;;;5027526;28;20191;-68
2021/01/10 12:52:40;;;;;;;17.70;10.27;;;6.70;99.90;;;;;;5033753;28;20201;-68
2021/01/10 12:55:07;;;;;;;19.63;10.10;;;6.60;99.90;;;;;;5034036;28;20435;-68
2021/01/10 12:57:33;;;;;;;16.63;10.37;;;6.60;99.90;;;;;;5033859;28;20446;-68
2021/01/10 12:59:59;;;;;;;14.80;8.80;;;6.40;99.90;;;;;;5033858;28;20430;-69
2021/01/10 13:02:24;;;;;;;18.90;8.87;;;6.50;99.90;;;;;;5033702;28;20512;-69
2021/01/10 13:04:50;;;;;;;26.10;11.97;;;6.60;99.90;;;;;;5033653;28;20670;-68
2021/01/10 13:07:17;;;;;;;18.00;9.80;;;6.50;99.90;;;;;;5033494;28;20298;-69
2021/01/10 13:09:43;;;;;;;20.80;9.43;;;6.60;99.90;;;;;;5033570;28;20517;-69
2021/01/10 13:12:09;;;;;;;17.33;8.60;;;6.60;99.90;;;;;;5033541;28;20529;-68
2021/01/10 13:14:35;;;;;;;14.70;8.33;;;6.80;99.90;;;;;;5033465;28;20245;-68
2021/01/10 13:17:02;;;;;;;18.23;9.90;;;6.90;99.90;;;;;;5033624;28;20191;-68
2021/01/10 13:19:27;;;;;;;16.60;9.70;;;6.90;99.90;;;;;;5032995;28;20442;-68
2021/01/10 13:21:53;;;;;;;15.60;9.57;;;6.90;99.90;;;;;;5033216;28;20443;-69
2021/01/10 13:24:18;;;;;;;15.73;10.83;;;6.90;99.90;;;;;;5033322;28;20681;-69
2021/01/10 13:26:44;;;;;;;22.37;10.77;;;7.00;99.90;;;;;;5033174;28;20635;-68
2021/01/10 13:29:10;;;;;;;20.27;9.93;;;7.10;99.90;;;;;;5033298;28;20202;-68
2021/01/10 13:31:39;;;;;;;19.47;9.90;;;7.30;99.90;;;;;;5033200;28;20611;-68
2021/01/10 13:34:07;;;;;;;18.13;10.10;;;7.50;99.90;;;;;;5029457;28;20175;-68
2021/01/10 13:36:33;;;;;;;27.77;11.97;;;7.70;99.90;;;;;;5030558;28;20426;-68
2021/01/10 13:38:59;;;;;;;24.03;10.80;;;7.80;99.90;;;;;;5033906;28;20773;-68
2021/01/10 13:44:46;;;;;;;19.40;10.60;;;8.10;99.90;;;;;;5033288;28;20470;-68
2021/01/10 13:50:34;;;;;;;17.40;11.37;;;8.20;99.90;;;;;;5033123;28;20159;-69
2021/01/10 13:56:23;;;;;;;19.63;10.17;;;8.20;99.90;;;;;;5033500;28;20599;-68
2021/01/10 13:58:49;;;;;;;16.47;9.23;;;8.10;99.90;;;;;;5033181;28;20911;-69
2021/01/10 14:01:16;;;;;;;19.60;11.73;;;8.00;99.90;;;;;;5033653;28;20469;-69
2021/01/10 14:03:42;;;;;;;20.20;13.00;;;7.80;99.90;;;;;;5033099;28;20482;-69
2021/01/10 14:06:17;;;;;;;19.67;12.10;;;7.70;99.90;;;;;;5033583;28;20844;-69
2021/01/10 14:08:43;;;;;;;24.90;12.40;;;7.60;99.90;;;;;;5033512;28;20410;-69
2021/01/10 14:11:08;;;;;;;23.00;11.83;;;7.50;99.90;;;;;;5033513;28;20444;-68
2021/01/10 14:13:33;;;;;;;22.20;12.13;;;7.40;99.90;;;;;;5033585;28;20196;-69
2021/01/10 14:16:03;;;;;;;23.03;11.40;;;7.40;99.90;;;;;;5033310;28;20189;-68
2021/01/10 14:18:29;;;;;;;24.60;13.37;;;7.30;99.90;;;;;;5032969;28;20219;-69
2021/01/10 14:20:54;;;;;;;28.33;13.90;;;7.30;99.90;;;;;;5033411;28;20505;-69
2021/01/10 14:23:20;;;;;;;25.53;13.97;;;7.30;99.90;;;;;;5033357;28;20681;-69
2021/01/10 14:25:45;;;;;;;28.33;13.70;;;7.30;99.90;;;;;;5033287;28;20172;-68
2021/01/10 14:28:12;;;;;;;30.57;15.57;;;7.30;99.90;;;;;;5033903;28;20619;-68
2021/01/10 14:34:00;;;;;;;23.37;13.93;;;7.20;99.90;;;;;;5037049;28;20817;-69
2021/01/10 14:36:25;;;;;;;32.03;14.97;;;7.10;99.90;;;;;;5036943;28;20429;-69
2021/01/10 14:42:13;;;;;;;42.17;15.23;;;7.00;99.90;;;;;;5036844;28;20251;-68
2021/01/10 14:44:38;;;;;;;29.40;16.77;;;6.90;99.90;;;;;;5037419;28;20552;-70
2021/01/10 14:47:03;;;;;;;30.77;17.60;;;6.70;99.90;;;;;;5037082;28;20178;-69
2021/01/10 14:49:30;;;;;;;28.70;16.33;;;6.70;99.90;;;;;;5036851;28;20175;-69
2021/01/10 14:51:56;;;;;;;39.00;17.40;;;6.80;99.90;;;;;;5036685;28;20198;-68
2021/01/10 14:54:21;;;;;;;34.90;17.70;;;6.80;99.90;;;;;;5036889;28;20475;-69
2021/01/10 14:56:47;;;;;;;30.37;16.33;;;6.70;99.90;;;;;;5036744;28;20676;-69
2021/01/10 14:59:13;;;;;;;35.20;17.30;;;6.70;99.90;;;;;;5036789;28;20197;-69
2021/01/10 15:01:39;;;;;;;33.77;16.27;;;6.60;99.90;;;;;;5036636;28;20246;-70
2021/01/10 15:07:31;;;;;;;31.00;16.50;;;6.70;99.90;;;;;;5036267;28;20252;-68
2021/01/10 15:13:18;;;;;;;28.83;17.37;;;6.50;99.90;;;;;;5036240;28;20410;-75
2021/01/10 15:19:06;;;;;;;32.03;17.03;;;6.60;99.90;;;;;;5027091;28;20280;-76
2021/01/10 15:21:31;;;;;;;29.43;17.17;;;6.50;99.90;;;;;;5035863;28;20418;-74
2021/01/10 15:23:57;;;;;;;31.10;17.23;;;6.40;99.90;;;;;;5036447;28;20209;-74
2021/01/10 15:26:24;;;;;;;31.30;18.02;;;6.40;99.90;;;;;;5035631;28;20429;-74
2021/01/10 15:28:51;;;;;;;34.40;18.13;;;6.30;99.90;;;;;;5036285;28;20171;-73
2021/01/10 15:31:16;;;;;;;32.77;18.30;;;6.40;99.90;;;;;;5035076;28;20438;-74
2021/01/10 15:33:44;;;;;;;32.83;17.30;;;6.40;99.90;;;;;;5036187;28;20420;-73
2021/01/10 15:36:09;;;;;;;36.50;19.00;;;6.20;99.90;;;;;;5035913;28;20638;-73
2021/01/10 15:41:57;;;;;;;39.23;17.67;;;6.00;99.90;;;;;;5035764;28;20183;-69
2021/01/10 15:47:44;;;;;;;37.30;17.53;;;6.10;99.90;;;;;;5035659;28;20538;-69
2021/01/10 15:50:10;;;;;;;35.73;18.63;;;6.10;99.90;;;;;;5035840;28;20419;-69
2021/01/10 15:52:36;;;;;;;34.20;17.80;;;6.00;99.90;;;;;;5035835;28;20182;-69
2021/01/10 15:55:05;;;;;;;31.43;16.63;;;6.00;99.90;;;;;;5035697;28;20649;-69
2021/01/10 16:00:52;;;;;;;35.33;18.17;;;6.00;99.90;;;;;;5035342;28;20414;-69
2021/01/10 16:03:18;;;;;;;35.43;19.47;;;6.00;99.90;;;;;;5035477;28;20816;-69
2021/01/10 16:09:07;;;;;;;35.90;17.73;;;5.80;99.90;;;;;;5035321;28;20171;-69
2021/01/10 16:14:56;;;;;;;35.83;19.87;;;5.50;99.90;;;;;;5035124;28;20969;-69
2021/01/10 16:20:43;;;;;;;34.53;18.80;;;5.50;99.90;;;;;;5023981;28;21014;-69
2021/01/10 16:26:38;;;;;;;33.20;19.77;;;5.60;99.90;;;;;;5034933;28;20532;-69
2021/01/10 16:29:03;;;;;;;38.73;18.93;;;5.50;99.90;;;;;;5034949;28;20430;-73
2021/01/10 16:31:38;;;;;;;38.73;19.40;;;5.30;99.90;;;;;;5034750;28;20410;-73
2021/01/10 16:37:27;;;;;;;36.67;18.67;;;5.20;99.90;;;;;;5034673;28;20457;-74
2021/01/10 16:43:14;;;;;;;37.07;19.67;;;5.10;99.90;;;;;;5034613;28;20405;-73
2021/01/10 16:45:40;;;;;;;35.47;19.17;;;5.10;99.90;;;;;;5034842;28;20804;-73
2021/01/10 16:48:07;;;;;;;37.70;20.37;;;5.10;99.90;;;;;;5034847;28;20266;-73
2021/01/10 16:50:32;;;;;;;40.80;19.67;;;5.00;99.90;;;;;;5034770;28;20537;-73
2021/01/10 16:52:58;;;;;;;34.97;19.70;;;4.90;99.90;;;;;;5034694;28;20422;-73
2021/01/10 16:55:23;;;;;;;38.93;20.70;;;4.80;99.90;;;;;;5033512;28;20236;-73
2021/01/10 16:57:49;;;;;;;41.53;20.03;;;4.80;99.90;;;;;;5034628;28;20181;-73
2021/01/10 17:03:36;;;;;;;32.47;20.63;;;4.80;99.90;;;;;;5034052;28;20300;-73
2021/01/10 17:06:02;;;;;;;44.83;21.00;;;4.70;99.90;;;;;;5034312;28;20468;-74
2021/01/10 17:11:50;;;;;;;40.90;21.97;;;4.60;99.90;;;;;;5034092;28;20543;-74
2021/01/10 17:14:17;;;;;;;40.63;21.67;;;4.60;99.90;;;;;;5034520;28;20433;-75
2021/01/10 17:20:05;;;;;;;40.83;21.80;;;4.50;99.90;;;;;;5033478;28;20475;-68
2021/01/10 17:22:33;;;;;;;41.07;23.53;;;4.50;99.90;;;;;;5032736;28;20491;-67
2021/01/10 17:24:59;;;;;;;42.47;22.07;;;4.40;99.90;;;;;;5033983;28;20873;-67
2021/01/10 17:30:46;;;;;;;38.57;21.07;;;4.40;99.90;;;;;;5033707;28;20167;-68
2021/01/10 17:33:12;;;;;;;44.47;22.30;;;4.40;99.90;;;;;;5033613;28;20938;-68
2021/01/10 17:35:37;;;;;;;39.90;21.40;;;4.30;99.90;;;;;;5033606;28;20177;-68
2021/01/10 17:41:25;;;;;;;45.57;21.47;;;4.30;99.90;;;;;;5033568;28;20217;-74
2021/01/10 17:47:13;;;;;;;47.07;23.53;;;4.20;99.90;;;;;;5033545;28;20169;-68
2021/01/10 17:49:39;;;;;;;44.53;24.03;;;4.20;99.90;;;;;;5033665;28;20423;-68
2021/01/10 17:55:26;;;;;;;42.70;23.37;;;4.20;99.90;;;;;;5033387;28;20202;-69
2021/01/10 17:57:52;;;;;;;44.73;23.57;;;4.20;99.90;;;;;;5033535;28;20863;-69
2021/01/10 18:00:17;;;;;;;45.67;25.00;;;4.20;99.90;;;;;;5033527;28;20229;-70
2021/01/10 18:02:43;;;;;;;45.40;24.23;;;4.20;99.90;;;;;;5033502;28;20167;-69
2021/01/10 18:08:31;;;;;;;42.63;21.53;;;4.30;99.90;;;;;;5039848;28;20193;-69
2021/01/10 18:14:19;;;;;;;35.97;21.10;;;4.00;99.90;;;;;;5039759;28;20459;-69
2021/01/10 18:16:44;;;;;;;48.03;22.60;;;4.00;99.90;;;;;;5039911;28;20513;-69
2021/01/10 18:22:39;;;;;;;34.43;21.53;;;3.90;99.90;;;;;;5028010;28;20229;-68
2021/01/10 18:25:08;;;;;;;43.40;22.90;;;4.10;99.90;;;;;;5039533;28;20503;-68
2021/01/10 18:27:35;;;;;;;38.37;21.97;;;4.10;99.90;;;;;;5039893;28;20436;-69
2021/01/10 18:33:22;;;;;;;38.37;20.73;;;4.10;99.90;;;;;;5039614;28;20428;-69
2021/01/10 18:35:48;;;;;;;40.57;23.80;;;4.00;99.90;;;;;;5039845;28;20426;-69
2021/01/10 18:38:13;;;;;;;46.83;21.67;;;4.00;99.90;;;;;;5039855;28;20545;-69
2021/01/10 18:40:38;;;;;;;41.00;21.50;;;4.00;99.90;;;;;;5039863;28;20260;-69
2021/01/10 18:46:27;;;;;;;37.10;21.30;;;4.00;99.90;;;;;;5039419;28;20168;-68
2021/01/10 18:48:54;;;;;;;38.57;22.60;;;4.10;99.90;;;;;;5039714;28;20925;-69